Time;durP1;ratioP1;P1;durP2;ratioP2;P2;SDS_P1;SDS_P2;PMS_P1;PMS_P2;Temp;Humidity;BMP_temperature;BMP_pressure;BME280_temperature;BME280_humidity;BME280_pressure;Samples;Min_cycle;Max_cycle;Signal;HPM_P1;HPM_P2
2023/09/23 00:02:21;;;;;;;0.63;0.55;;;16.20;56.10;;;;;;5002325;28;20054;-54
2023/09/23 00:04:48;;;;;;;0.50;0.30;;;16.30;56.10;;;;;;5003713;28;20080;-51
2023/09/23 00:07:17;;;;;;;0.50;0.40;;;16.30;56.10;;;;;;5002560;28;20050;-50
2023/09/23 00:09:45;;;;;;;3.55;0.60;;;16.30;56.10;;;;;;5003066;28;20058;-53
2023/09/23 00:12:12;;;;;;;0.60;0.32;;;16.30;56.20;;;;;;5003799;28;20424;-55
2023/09/23 00:14:39;;;;;;;0.65;0.47;;;16.30;56.20;;;;;;5002757;28;20054;-54
2023/09/23 00:17:07;;;;;;;3.65;0.50;;;16.30;56.20;;;;;;5001851;28;20054;-53
2023/09/23 00:19:35;;;;;;;1.73;0.60;;;16.30;56.20;;;;;;5004467;28;20410;-52
2023/09/23 00:22:03;;;;;;;2.38;0.60;;;16.30;56.20;;;;;;5003038;28;20062;-51
2023/09/23 00:24:31;;;;;;;0.60;0.50;;;16.30;56.20;;;;;;5003565;28;20073;-51
2023/09/23 00:26:59;;;;;;;0.98;0.63;;;16.30;56.10;;;;;;5002375;28;20398;-53
2023/09/23 00:29:28;;;;;;;1.60;0.70;;;16.30;56.10;;;;;;5003488;28;20521;-52
2023/09/23 00:31:57;;;;;;;2.30;0.93;;;16.20;56.20;;;;;;5002374;28;20054;-51
2023/09/23 00:34:24;;;;;;;2.00;1.20;;;16.30;56.20;;;;;;5002691;28;20057;-55
2023/09/23 00:36:52;;;;;;;2.95;1.42;;;16.20;56.10;;;;;;5002954;28;20498;-53
2023/09/23 00:39:19;;;;;;;3.75;1.40;;;16.20;56.10;;;;;;5004093;28;20054;-48
2023/09/23 00:41:48;;;;;;;3.33;1.50;;;16.20;56.10;;;;;;5003356;28;20053;-51
2023/09/23 00:44:16;;;;;;;2.22;1.10;;;16.20;56.10;;;;;;5002772;28;20049;-52
2023/09/23 00:46:45;;;;;;;3.67;1.35;;;16.20;56.20;;;;;;5001498;28;20505;-51
2023/09/23 00:49:14;;;;;;;1.48;0.80;;;16.20;56.10;;;;;;5003092;28;20050;-52
2023/09/23 00:51:42;;;;;;;1.45;0.60;;;16.20;56.00;;;;;;5004160;28;20057;-51
2023/09/23 00:54:09;;;;;;;1.33;0.70;;;16.10;56.00;;;;;;5000981;28;20054;-56
2023/09/23 00:56:37;;;;;;;1.13;0.68;;;16.10;56.00;;;;;;5001919;28;20585;-50
2023/09/23 00:59:06;;;;;;;2.17;0.55;;;16.10;56.00;;;;;;5002834;28;20053;-52
2023/09/23 01:01:33;;;;;;;1.23;0.60;;;16.10;56.00;;;;;;5001515;28;20077;-54
2023/09/23 01:04:01;;;;;;;1.40;0.63;;;16.10;56.00;;;;;;5002465;23;20073;-45
2023/09/23 01:06:28;;;;;;;1.95;0.70;;;16.10;56.00;;;;;;4966131;28;20061;-46
2023/09/23 01:08:57;;;;;;;1.88;0.60;;;16.00;55.90;;;;;;4966066;28;20141;-45
2023/09/23 01:11:26;;;;;;;1.27;0.70;;;16.00;56.00;;;;;;4965538;28;20065;-44
2023/09/23 01:13:54;;;;;;;2.15;0.60;;;16.00;56.00;;;;;;4965747;28;20426;-43
2023/09/23 01:16:24;;;;;;;3.20;1.15;;;16.00;56.00;;;;;;4964449;28;20062;-53
2023/09/23 01:18:51;;;;;;;1.10;0.60;;;16.00;56.00;;;;;;4965307;28;20387;-44
2023/09/23 01:21:18;;;;;;;1.02;0.70;;;15.90;56.00;;;;;;4966104;28;20473;-42
2023/09/23 01:23:47;;;;;;;0.63;0.45;;;15.90;56.00;;;;;;4965239;28;20066;-46
2023/09/23 01:26:14;;;;;;;2.80;1.00;;;15.90;56.00;;;;;;4965843;28;20127;-44
2023/09/23 01:28:42;;;;;;;3.30;0.98;;;15.90;56.00;;;;;;4964405;28;20070;-43
2023/09/23 01:31:09;;;;;;;0.65;0.50;;;15.90;56.00;;;;;;4963416;28;20054;-45
2023/09/23 01:33:38;;;;;;;1.73;0.68;;;15.80;55.90;;;;;;4964348;28;20133;-44
2023/09/23 01:36:06;;;;;;;0.90;0.47;;;15.80;55.90;;;;;;4965388;28;20054;-48
2023/09/23 01:38:34;;;;;;;1.30;0.63;;;15.80;56.00;;;;;;4965086;28;20059;-45
2023/09/23 01:41:04;;;;;;;2.35;0.77;;;15.80;56.00;;;;;;4966481;28;20050;-44
2023/09/23 01:43:31;;;;;;;0.77;0.50;;;15.80;56.00;;;;;;4966482;28;20495;-44
2023/09/23 01:46:03;;;;;;;1.48;0.43;;;15.80;56.10;;;;;;4963551;28;20434;-46
2023/09/23 01:48:31;;;;;;;1.52;0.60;;;15.70;56.00;;;;;;4963413;28;20051;-45
2023/09/23 01:50:59;;;;;;;1.35;0.60;;;15.70;56.10;;;;;;4965639;28;20059;-43
2023/09/23 01:53:27;;;;;;;0.85;0.65;;;15.70;56.10;;;;;;4965491;28;20055;-43
2023/09/23 01:55:55;;;;;;;3.35;0.82;;;15.70;56.20;;;;;;4964869;28;20051;-46
2023/09/23 01:58:23;;;;;;;1.42;0.60;;;15.70;56.20;;;;;;4965296;28;20051;-46
2023/09/23 02:00:51;;;;;;;0.88;0.70;;;15.70;56.20;;;;;;4967888;28;20069;-42
2023/09/23 02:03:18;;;;;;;2.05;0.70;;;15.60;56.20;;;;;;4968771;28;20065;-48
2023/09/23 02:05:47;;;;;;;2.75;0.80;;;15.60;56.30;;;;;;4967115;28;20054;-47
2023/09/23 02:08:15;;;;;;;1.85;0.55;;;15.60;56.30;;;;;;4968945;28;20051;-45
2023/09/23 02:10:44;;;;;;;3.10;0.90;;;15.60;56.40;;;;;;4968208;28;20313;-44
2023/09/23 02:13:12;;;;;;;1.15;0.75;;;15.60;56.40;;;;;;4967707;28;20066;-43
2023/09/23 02:15:41;;;;;;;2.45;0.80;;;15.60;56.50;;;;;;4965993;28;20055;-49
2023/09/23 02:18:08;;;;;;;1.10;0.60;;;15.60;56.50;;;;;;4969348;28;20058;-47
2023/09/23 02:20:35;;;;;;;1.35;0.50;;;15.60;56.50;;;;;;4967297;28;20050;-53
2023/09/23 02:23:05;;;;;;;2.78;0.85;;;15.60;56.50;;;;;;4967698;28;20051;-55
2023/09/23 02:25:33;;;;;;;2.60;0.60;;;15.50;56.50;;;;;;4968220;28;20384;-49
2023/09/23 02:28:00;;;;;;;3.35;0.85;;;15.50;56.60;;;;;;4967763;28;20054;-46
2023/09/23 02:30:28;;;;;;;4.25;0.73;;;15.50;56.60;;;;;;4967142;28;20063;-51
2023/09/23 02:32:58;;;;;;;1.90;0.70;;;15.50;56.60;;;;;;4966802;28;20051;-46
2023/09/23 02:35:25;;;;;;;2.58;0.80;;;15.50;56.60;;;;;;4986674;28;20058;-47
2023/09/23 02:37:53;;;;;;;1.73;0.60;;;15.50;56.60;;;;;;4987109;28;20050;-50
2023/09/23 02:40:20;;;;;;;1.05;0.50;;;15.50;56.70;;;;;;4988114;28;20522;-49
2023/09/23 02:42:51;;;;;;;2.85;0.80;;;15.50;56.70;;;;;;4986126;28;20418;-48
2023/09/23 02:45:20;;;;;;;3.88;1.13;;;15.50;56.70;;;;;;4986733;28;20054;-52
2023/09/23 02:47:48;;;;;;;3.47;0.63;;;15.50;56.70;;;;;;4985421;28;20046;-50
2023/09/23 02:50:17;;;;;;;3.30;0.57;;;15.50;56.70;;;;;;4987071;28;20486;-51
2023/09/23 02:52:48;;;;;;;3.55;1.00;;;15.40;56.70;;;;;;4986709;28;20054;-48
2023/09/23 02:55:18;;;;;;;1.63;0.63;;;15.50;56.80;;;;;;4987343;28;20490;-52
2023/09/23 02:57:49;;;;;;;2.28;0.70;;;15.40;56.80;;;;;;4985947;28;20058;-49
2023/09/23 03:00:19;;;;;;;3.50;1.60;;;15.40;56.80;;;;;;4985198;28;20054;-49
2023/09/23 03:02:50;;;;;;;2.38;0.73;;;15.40;56.90;;;;;;4986078;28;20108;-46
2023/09/23 03:05:25;;;;;;;2.33;0.85;;;15.40;56.90;;;;;;4987554;28;20054;-49
2023/09/23 03:07:52;;;;;;;3.50;0.80;;;15.40;56.90;;;;;;4987538;28;20050;-48
2023/09/23 03:10:29;;;;;;;3.67;0.80;;;15.40;56.90;;;;;;4987469;28;20081;-49
2023/09/23 03:13:02;;;;;;;2.00;0.82;;;15.40;56.90;;;;;;4986431;28;20418;-46
2023/09/23 03:15:34;;;;;;;2.17;0.90;;;15.40;56.90;;;;;;4985267;28;20054;-49
2023/09/23 03:18:02;;;;;;;1.70;0.80;;;15.30;56.90;;;;;;4987329;28;20046;-49
2023/09/23 03:20:31;;;;;;;7.03;1.05;;;15.40;56.90;;;;;;4984440;28;20121;-47
2023/09/23 03:22:58;;;;;;;1.60;0.60;;;15.30;56.90;;;;;;4986905;28;20524;-48
2023/09/23 03:25:26;;;;;;;3.17;0.73;;;15.30;56.90;;;;;;4986934;28;20066;-55
2023/09/23 03:27:53;;;;;;;3.30;0.90;;;15.30;57.00;;;;;;4985366;28;20050;-48
2023/09/23 03:30:20;;;;;;;6.57;0.98;;;15.30;57.00;;;;;;4985878;28;20058;-47
2023/09/23 03:32:49;;;;;;;2.78;0.73;;;15.30;57.00;;;;;;4985307;28;20046;-49
2023/09/23 03:35:17;;;;;;;3.40;0.73;;;15.30;57.10;;;;;;4985568;28;20050;-44
2023/09/23 03:37:51;;;;;;;2.45;0.95;;;15.30;57.10;;;;;;4985758;28;20054;-42
2023/09/23 03:40:24;;;;;;;2.15;0.65;;;15.30;57.10;;;;;;4986218;28;20058;-45
2023/09/23 03:42:52;;;;;;;1.48;0.68;;;15.30;57.10;;;;;;4986293;28;20054;-45
2023/09/23 03:45:19;;;;;;;1.52;0.70;;;15.30;57.10;;;;;;4985828;28;20613;-46
2023/09/23 03:47:47;;;;;;;2.38;1.00;;;15.30;57.10;;;;;;4984712;28;20054;-43
2023/09/23 03:50:15;;;;;;;2.47;0.90;;;15.30;57.10;;;;;;4986351;28;20065;-46
2023/09/23 03:52:43;;;;;;;4.15;0.85;;;15.30;57.10;;;;;;4985418;28;20057;-44
2023/09/23 03:55:13;;;;;;;1.77;0.60;;;15.30;57.10;;;;;;4986402;28;20065;-46
2023/09/23 03:57:42;;;;;;;2.40;0.73;;;15.30;57.10;;;;;;4984879;28;20053;-43
2023/09/23 04:00:16;;;;;;;2.90;0.95;;;15.30;57.10;;;;;;4984514;28;20064;-46
2023/09/23 04:02:47;;;;;;;3.42;0.70;;;15.30;57.10;;;;;;4984286;28;20122;-46
2023/09/23 04:05:15;;;;;;;2.78;0.80;;;15.30;57.10;;;;;;4985533;28;20054;-45
2023/09/23 04:07:47;;;;;;;2.38;0.80;;;15.30;57.10;;;;;;4984984;28;20057;-51
2023/09/23 04:10:17;;;;;;;1.65;0.60;;;15.30;57.10;;;;;;4984296;28;20288;-44
2023/09/23 04:12:45;;;;;;;1.98;1.17;;;15.30;57.20;;;;;;4986932;28;20069;-44
2023/09/23 04:15:13;;;;;;;2.95;0.95;;;15.30;57.20;;;;;;4984637;28;20050;-47
2023/09/23 04:17:40;;;;;;;2.35;0.88;;;15.30;57.20;;;;;;4985782;28;20057;-49
2023/09/23 04:20:09;;;;;;;1.95;0.80;;;15.30;57.20;;;;;;4985864;28;20050;-45
2023/09/23 04:22:38;;;;;;;1.63;0.52;;;15.30;57.10;;;;;;4985410;28;20046;-46
2023/09/23 04:25:06;;;;;;;4.65;1.70;;;15.30;57.10;;;;;;4988855;28;20054;-45
2023/09/23 04:27:37;;;;;;;2.25;0.60;;;15.30;57.10;;;;;;4984903;28;20065;-42
2023/09/23 04:30:07;;;;;;;2.78;0.73;;;15.30;57.20;;;;;;4984694;28;20046;-49
2023/09/23 04:32:35;;;;;;;2.33;0.80;;;15.30;57.20;;;;;;4986844;28;20506;-46
2023/09/23 04:35:04;;;;;;;0.63;0.52;;;15.30;57.20;;;;;;4985159;28;20050;-44
2023/09/23 04:37:36;;;;;;;2.97;0.52;;;15.30;57.20;;;;;;4984814;28;20050;-44
2023/09/23 04:40:09;;;;;;;1.77;0.65;;;15.20;57.20;;;;;;4984422;28;20050;-52
2023/09/23 04:42:38;;;;;;;2.10;0.63;;;15.20;57.20;;;;;;4985717;28;20058;-54
2023/09/23 04:45:07;;;;;;;2.25;0.93;;;15.20;57.20;;;;;;4983858;28;20061;-50
2023/09/23 04:47:35;;;;;;;3.35;0.73;;;15.20;57.10;;;;;;4983861;28;20058;-53
2023/09/23 04:50:03;;;;;;;1.92;0.50;;;15.20;57.10;;;;;;4989775;28;20042;-51
2023/09/23 04:52:30;;;;;;;3.28;0.60;;;15.20;57.10;;;;;;4984156;28;20050;-52
2023/09/23 04:54:57;;;;;;;1.70;0.50;;;15.20;57.10;;;;;;4985472;28;20061;-52
2023/09/23 04:57:25;;;;;;;1.92;0.68;;;15.20;57.10;;;;;;4985587;28;20524;-51
2023/09/23 04:59:54;;;;;;;2.40;0.90;;;15.20;57.10;;;;;;4984528;28;20046;-50
2023/09/23 05:02:22;;;;;;;2.05;0.65;;;15.20;57.10;;;;;;4985510;28;20058;-49
2023/09/23 05:04:53;;;;;;;3.85;0.63;;;15.10;57.00;;;;;;4985010;28;20149;-53
2023/09/23 05:07:20;;;;;;;3.75;0.70;;;15.10;57.00;;;;;;4986204;28;20065;-55
2023/09/23 05:09:49;;;;;;;2.67;0.55;;;15.10;57.00;;;;;;4984320;28;20051;-52
2023/09/23 05:12:16;;;;;;;4.30;0.70;;;15.10;57.00;;;;;;4985045;28;20050;-48
2023/09/23 05:14:44;;;;;;;2.20;0.50;;;15.10;57.00;;;;;;4983730;28;20071;-52
2023/09/23 05:17:15;;;;;;;2.97;0.82;;;15.00;57.10;;;;;;4983038;28;20061;-53
2023/09/23 05:19:42;;;;;;;2.33;0.77;;;15.00;57.10;;;;;;4983917;28;20050;-52
2023/09/23 05:22:10;;;;;;;1.33;0.70;;;15.00;57.10;;;;;;4984739;28;20429;-55
2023/09/23 05:24:39;;;;;;;1.92;0.75;;;15.00;57.20;;;;;;4985293;28;20069;-50
2023/09/23 05:27:06;;;;;;;1.50;0.50;;;14.90;57.20;;;;;;4983301;28;20053;-50
2023/09/23 05:29:33;;;;;;;1.35;0.70;;;14.90;57.30;;;;;;4985434;28;20046;-53
2023/09/23 05:32:01;;;;;;;0.88;0.60;;;15.00;57.40;;;;;;4984161;28;20057;-54
2023/09/23 05:34:29;;;;;;;3.40;0.70;;;14.90;57.40;;;;;;4987357;28;20053;-53
2023/09/23 05:36:57;;;;;;;0.82;0.43;;;14.90;57.50;;;;;;4990725;28;20061;-54
2023/09/23 05:39:24;;;;;;;2.47;0.63;;;15.00;57.50;;;;;;4989119;28;20054;-53
2023/09/23 05:41:53;;;;;;;8.77;4.47;;;15.00;57.50;;;;;;4989759;28;20073;-48
2023/09/23 05:44:20;;;;;;;13.73;6.78;;;14.90;57.50;;;;;;4972177;28;20057;-52
2023/09/23 05:46:49;;;;;;;8.77;4.40;;;15.00;57.60;;;;;;4986789;28;20050;-55
2023/09/23 05:49:16;;;;;;;4.90;2.55;;;15.00;57.50;;;;;;4987266;28;20058;-53
2023/09/23 05:51:45;;;;;;;3.20;1.63;;;14.90;58.00;;;;;;4988343;28;20073;-54
2023/09/23 05:54:12;;;;;;;5.78;1.13;;;15.00;57.60;;;;;;4987859;28;20410;-48
2023/09/23 05:56:40;;;;;;;2.50;1.00;;;15.00;57.60;;;;;;4988827;28;20494;-54
2023/09/23 05:59:08;;;;;;;1.02;0.50;;;15.00;57.70;;;;;;4988488;28;20043;-50
2023/09/23 06:01:38;;;;;;;1.48;0.50;;;14.90;57.70;;;;;;4986553;28;20062;-52
2023/09/23 06:04:06;;;;;;;3.38;0.85;;;14.90;57.70;;;;;;4989363;28;20065;-54
2023/09/23 06:06:33;;;;;;;0.57;0.50;;;14.90;57.80;;;;;;4989295;28;20093;-53
2023/09/23 06:09:01;;;;;;;3.22;0.90;;;15.00;57.90;;;;;;4990938;28;20073;-54
2023/09/23 06:11:29;;;;;;;3.33;0.70;;;15.00;57.90;;;;;;4987253;28;20054;-51
2023/09/23 06:13:56;;;;;;;3.38;0.68;;;15.00;57.90;;;;;;4985738;28;20068;-51
2023/09/23 06:16:23;;;;;;;2.92;0.95;;;15.00;57.90;;;;;;4986585;28;20502;-52
2023/09/23 06:18:51;;;;;;;2.80;0.77;;;15.00;57.90;;;;;;4985070;28;20050;-51
2023/09/23 06:21:18;;;;;;;1.63;0.57;;;15.00;57.90;;;;;;4988354;28;20060;-54
2023/09/23 06:23:46;;;;;;;1.38;0.60;;;15.00;57.90;;;;;;4986342;28;20513;-56
2023/09/23 06:26:16;;;;;;;3.10;0.60;;;15.00;58.00;;;;;;4986565;28;20054;-55
2023/09/23 06:28:43;;;;;;;1.83;0.80;;;15.10;58.10;;;;;;4986070;28;20573;-55
2023/09/23 06:31:11;;;;;;;1.80;0.60;;;15.10;58.20;;;;;;4984208;28;20077;-50
2023/09/23 06:33:39;;;;;;;4.68;0.90;;;15.10;58.20;;;;;;4986203;28;20521;-53
2023/09/23 06:36:07;;;;;;;2.97;0.80;;;15.10;58.20;;;;;;4986745;28;20077;-51
2023/09/23 06:38:34;;;;;;;4.80;0.80;;;15.10;58.20;;;;;;4986687;28;20050;-56
2023/09/23 06:41:01;;;;;;;2.97;0.60;;;15.20;58.20;;;;;;4985965;28;20054;-55
2023/09/23 06:43:30;;;;;;;1.67;0.60;;;15.20;58.20;;;;;;4985940;28;20512;-53
2023/09/23 06:45:58;;;;;;;1.85;0.70;;;15.20;58.20;;;;;;4986398;28;20525;-51
2023/09/23 06:48:26;;;;;;;0.98;0.65;;;15.20;58.30;;;;;;4988496;28;20118;-55
2023/09/23 06:51:00;;;;;;;4.00;1.10;;;15.30;58.40;;;;;;4987369;28;20095;-56
2023/09/23 06:53:28;;;;;;;2.17;0.60;;;15.30;58.40;;;;;;4987600;28;20054;-54
2023/09/23 06:55:56;;;;;;;1.85;0.47;;;15.30;58.40;;;;;;4986076;28;20524;-55
2023/09/23 06:58:23;;;;;;;3.92;0.73;;;15.30;58.40;;;;;;4986700;28;20528;-54
2023/09/23 07:00:53;;;;;;;2.22;0.60;;;15.40;58.40;;;;;;4987262;28;20398;-44
2023/09/23 07:03:21;;;;;;;3.40;0.70;;;15.40;58.30;;;;;;4985515;28;20536;-45
2023/09/23 07:05:48;;;;;;;2.40;0.65;;;15.50;58.30;;;;;;4988247;28;20065;-45
2023/09/23 07:08:15;;;;;;;2.17;0.60;;;15.50;58.30;;;;;;4988048;28;20058;-44
2023/09/23 07:10:43;;;;;;;2.75;0.73;;;15.60;58.30;;;;;;4988198;28;20054;-47
2023/09/23 07:13:10;;;;;;;3.80;1.17;;;15.60;58.30;;;;;;4986253;28;20416;-51
2023/09/23 07:15:38;;;;;;;1.70;0.60;;;15.60;58.30;;;;;;4985323;28;20058;-45
2023/09/23 07:18:07;;;;;;;2.90;0.77;;;15.70;58.20;;;;;;4986189;28;20081;-41
2023/09/23 07:20:35;;;;;;;4.18;1.08;;;15.70;58.20;;;;;;4985932;28;21237;-42
2023/09/23 07:23:03;;;;;;;4.28;1.00;;;15.70;58.10;;;;;;4988148;28;20050;-47
2023/09/23 07:25:30;;;;;;;3.28;0.75;;;15.80;58.00;;;;;;4987568;28;20438;-45
2023/09/23 07:27:59;;;;;;;2.95;0.98;;;15.80;58.00;;;;;;4985439;28;20061;-43
2023/09/23 07:30:27;;;;;;;1.77;0.80;;;15.80;58.00;;;;;;4985451;28;20642;-46
2023/09/23 07:32:54;;;;;;;2.30;0.68;;;15.90;57.90;;;;;;4985392;28;20441;-49
2023/09/23 07:35:23;;;;;;;3.08;0.77;;;15.90;57.80;;;;;;4985891;28;20065;-49
2023/09/23 07:37:50;;;;;;;2.55;0.60;;;15.90;57.80;;;;;;4986458;28;20069;-43
2023/09/23 07:40:18;;;;;;;1.33;0.60;;;16.00;57.90;;;;;;4988672;28;20058;-44
2023/09/23 07:42:45;;;;;;;2.65;0.90;;;16.00;57.80;;;;;;4985695;28;20418;-42
2023/09/23 07:45:12;;;;;;;1.63;0.60;;;16.10;57.80;;;;;;4985326;28;20057;-49
2023/09/23 07:47:40;;;;;;;1.95;0.60;;;16.10;57.80;;;;;;4986065;28;20494;-44
2023/09/23 07:50:07;;;;;;;3.75;0.70;;;16.10;57.70;;;;;;4985138;28;20049;-44
2023/09/23 07:52:36;;;;;;;0.88;0.68;;;16.20;57.60;;;;;;4986565;28;20058;-44
2023/09/23 07:55:04;;;;;;;3.60;0.75;;;16.20;57.60;;;;;;4984349;28;20054;-45
2023/09/23 07:57:32;;;;;;;3.10;0.82;;;16.20;57.50;;;;;;4987136;28;20487;-42
2023/09/23 07:59:59;;;;;;;2.22;0.77;;;16.30;57.40;;;;;;4986172;28;20045;-44
2023/09/23 08:02:27;;;;;;;2.03;0.85;;;16.30;57.40;;;;;;4983505;28;20050;-43
2023/09/23 08:04:54;;;;;;;2.55;0.60;;;16.30;57.40;;;;;;4987996;28;20058;-46
2023/09/23 08:07:21;;;;;;;1.95;0.70;;;16.40;57.50;;;;;;4986710;28;20065;-43
2023/09/23 08:09:50;;;;;;;3.40;0.80;;;16.40;57.50;;;;;;4986851;28;20062;-48
2023/09/23 08:12:17;;;;;;;5.72;0.75;;;16.40;57.50;;;;;;4986103;28;20513;-49
2023/09/23 08:14:45;;;;;;;3.60;0.88;;;16.50;57.50;;;;;;4985544;28;20353;-48
2023/09/23 08:17:14;;;;;;;2.55;0.85;;;16.50;57.50;;;;;;4985254;28;20053;-51
2023/09/23 08:19:41;;;;;;;4.47;1.00;;;16.50;58.00;;;;;;4984990;28;20050;-50
2023/09/23 08:22:09;;;;;;;3.75;0.82;;;16.60;57.50;;;;;;4986215;28;20058;-47
2023/09/23 08:24:37;;;;;;;2.35;1.10;;;16.60;57.50;;;;;;4984668;28;20046;-45
2023/09/23 08:27:05;;;;;;;3.72;0.68;;;16.60;57.40;;;;;;4984794;28;20556;-54
2023/09/23 08:29:33;;;;;;;4.75;0.80;;;16.70;57.50;;;;;;4986264;28;20405;-47
2023/09/23 08:32:01;;;;;;;2.28;0.70;;;16.70;57.40;;;;;;4983838;28;20050;-48
2023/09/23 08:34:28;;;;;;;2.45;0.70;;;16.70;57.30;;;;;;4984798;28;20061;-48
2023/09/23 08:36:55;;;;;;;2.78;0.93;;;16.80;57.30;;;;;;4985525;28;20426;-48
2023/09/23 08:39:22;;;;;;;2.10;0.65;;;16.80;57.20;;;;;;4985250;28;20061;-55
2023/09/23 08:41:53;;;;;;;3.47;1.02;;;16.90;57.30;;;;;;4984759;28;20050;-47
2023/09/23 08:44:23;;;;;;;3.05;0.77;;;16.90;57.80;;;;;;4985650;28;20490;-53
2023/09/23 08:46:51;;;;;;;2.20;0.60;;;17.00;57.40;;;;;;4984202;28;20058;-51
2023/09/23 08:49:21;;;;;;;1.55;0.95;;;17.00;57.30;;;;;;4986886;28;20054;-48
2023/09/23 08:51:51;;;;;;;1.38;0.73;;;17.10;57.30;;;;;;4984635;28;20050;-44
2023/09/23 08:54:21;;;;;;;2.22;0.98;;;17.10;57.30;;;;;;4984994;28;20050;-46
2023/09/23 08:56:49;;;;;;;3.92;1.08;;;17.20;57.30;;;;;;4984105;28;20062;-50
2023/09/23 08:59:17;;;;;;;1.52;0.70;;;17.30;57.30;;;;;;4983226;28;20714;-51
2023/09/23 09:01:45;;;;;;;5.50;1.48;;;17.30;57.80;;;;;;4983859;28;20045;-49
2023/09/23 09:04:14;;;;;;;4.00;1.10;;;17.40;57.10;;;;;;4985567;28;20058;-46
2023/09/23 09:06:52;;;;;;;3.03;0.90;;;17.40;57.00;;;;;;4985262;28;20077;-46
2023/09/23 09:09:19;;;;;;;2.97;0.80;;;17.50;56.90;;;;;;4984357;28;20057;-45
2023/09/23 09:11:47;;;;;;;2.30;0.70;;;17.60;56.90;;;;;;4983889;28;20077;-47
2023/09/23 09:14:15;;;;;;;2.88;1.13;;;17.70;56.80;;;;;;4984589;28;20054;-46
2023/09/23 09:16:43;;;;;;;2.97;0.73;;;17.80;56.50;;;;;;4984854;28;20065;-50
2023/09/23 09:19:14;;;;;;;1.67;0.70;;;17.90;56.40;;;;;;4984361;28;20122;-48
2023/09/23 09:21:42;;;;;;;3.92;1.13;;;17.90;56.10;;;;;;4985340;28;20073;-46
2023/09/23 09:24:10;;;;;;;3.15;1.00;;;17.90;56.10;;;;;;4984982;28;20054;-48
2023/09/23 09:26:38;;;;;;;2.50;1.00;;;18.00;55.90;;;;;;4984224;28;20058;-46
2023/09/23 09:29:05;;;;;;;3.75;0.88;;;18.00;55.60;;;;;;4983009;28;20065;-50
2023/09/23 09:31:34;;;;;;;5.28;1.40;;;18.10;55.30;;;;;;4983460;28;20050;-48
2023/09/23 09:34:05;;;;;;;6.95;1.00;;;18.10;55.10;;;;;;4984057;28;20058;-51
2023/09/23 09:36:36;;;;;;;3.83;0.90;;;18.10;54.90;;;;;;4986304;28;20395;-46
2023/09/23 09:39:08;;;;;;;2.47;0.70;;;18.10;55.10;;;;;;4985658;28;20503;-46
2023/09/23 09:41:45;;;;;;;2.35;1.10;;;18.10;55.10;;;;;;4983942;28;20416;-45
2023/09/23 09:44:15;;;;;;;4.65;1.23;;;18.20;55.00;;;;;;4985400;28;20050;-46
2023/09/23 09:46:43;;;;;;;2.85;0.90;;;18.20;55.00;;;;;;4983066;28;20054;-43
2023/09/23 09:49:11;;;;;;;1.33;0.70;;;18.20;54.90;;;;;;4985794;28;20126;-47
2023/09/23 09:51:42;;;;;;;3.88;0.95;;;18.30;54.80;;;;;;4986244;28;20411;-47
2023/09/23 09:54:11;;;;;;;2.88;1.10;;;18.30;54.80;;;;;;4984315;28;20058;-50
2023/09/23 09:56:40;;;;;;;3.17;1.02;;;18.30;55.20;;;;;;4984244;28;20509;-49
2023/09/23 09:59:07;;;;;;;1.42;0.80;;;18.40;54.60;;;;;;4982777;28;20050;-49
2023/09/23 10:01:35;;;;;;;1.70;0.90;;;18.30;55.00;;;;;;4984552;28;20049;-50
2023/09/23 10:04:10;;;;;;;4.97;1.10;;;18.40;54.30;;;;;;4982186;28;20417;-46
2023/09/23 10:06:42;;;;;;;3.42;0.95;;;18.40;54.00;;;;;;4984632;28;20054;-45
2023/09/23 10:09:17;;;;;;;2.92;1.05;;;18.50;53.70;;;;;;4984130;28;20058;-49
2023/09/23 10:11:54;;;;;;;2.55;1.02;;;18.50;53.60;;;;;;4985013;28;20386;-48
2023/09/23 10:14:22;;;;;;;2.22;0.68;;;18.50;53.60;;;;;;4984655;28;20054;-48
2023/09/23 10:16:50;;;;;;;2.55;1.05;;;18.50;53.70;;;;;;4984437;28;20058;-46
2023/09/23 10:19:28;;;;;;;2.58;1.00;;;18.50;53.50;;;;;;4984804;28;20054;-45
2023/09/23 10:22:09;;;;;;;3.95;1.10;;;18.60;53.60;;;;;;4987426;28;20054;-52
2023/09/23 10:24:36;;;;;;;2.88;1.30;;;18.60;53.30;;;;;;4986264;28;20054;-47
2023/09/23 10:27:05;;;;;;;2.10;0.80;;;18.70;53.20;;;;;;4988822;28;20046;-46
2023/09/23 10:29:44;;;;;;;2.28;1.02;;;18.70;53.20;;;;;;4988623;28;20138;-51
2023/09/23 10:32:12;;;;;;;3.15;1.20;;;18.80;53.00;;;;;;4986505;28;20073;-47
2023/09/23 10:34:46;;;;;;;2.63;1.05;;;18.80;52.90;;;;;;4986995;28;20061;-47
2023/09/23 10:37:24;;;;;;;4.85;1.40;;;18.80;52.50;;;;;;4987208;28;20054;-48
2023/09/23 10:39:52;;;;;;;1.65;0.82;;;18.90;52.30;;;;;;4988333;28;20054;-53
2023/09/23 10:42:19;;;;;;;3.00;1.00;;;18.90;52.20;;;;;;4986734;28;20046;-55
2023/09/23 10:44:47;;;;;;;4.90;1.23;;;18.90;51.20;;;;;;4986103;28;20050;-46
2023/09/23 10:47:16;;;;;;;2.97;1.30;;;18.90;51.70;;;;;;4988328;28;20525;-49
2023/09/23 10:49:43;;;;;;;4.05;1.42;;;19.00;52.00;;;;;;4985617;28;20058;-47
2023/09/23 10:52:12;;;;;;;2.30;0.98;;;19.00;52.10;;;;;;4987727;28;20058;-47
2023/09/23 10:54:42;;;;;;;3.72;0.73;;;19.00;52.00;;;;;;4987091;28;20054;-49
2023/09/23 10:57:09;;;;;;;2.40;1.10;;;19.10;52.10;;;;;;4987303;28;21117;-46
2023/09/23 10:59:38;;;;;;;3.05;0.90;;;19.10;52.10;;;;;;4985928;28;20054;-46
2023/09/23 11:02:06;;;;;;;3.25;1.08;;;19.10;51.90;;;;;;4987213;28;20050;-47
2023/09/23 11:04:34;;;;;;;3.55;1.30;;;19.20;51.80;;;;;;4988126;28;20053;-49
2023/09/23 11:07:02;;;;;;;1.90;0.80;;;19.20;51.60;;;;;;4986475;28;20050;-48
2023/09/23 11:09:31;;;;;;;5.03;1.83;;;19.20;51.60;;;;;;4985791;28;20410;-47
2023/09/23 11:12:10;;;;;;;2.35;1.30;;;19.20;51.30;;;;;;4985792;28;20054;-49
2023/09/23 11:14:37;;;;;;;2.65;1.05;;;19.20;51.20;;;;;;4987209;28;20054;-53
2023/09/23 11:17:05;;;;;;;2.30;1.10;;;19.20;50.00;;;;;;4986240;28;20054;-51
2023/09/23 11:19:32;;;;;;;3.67;1.20;;;19.20;50.40;;;;;;4986583;28;20544;-54
2023/09/23 11:22:03;;;;;;;3.28;1.10;;;19.20;50.50;;;;;;4988317;28;20061;-56
2023/09/23 11:24:38;;;;;;;3.60;1.00;;;19.20;50.80;;;;;;4986229;28;20065;-53
2023/09/23 11:27:08;;;;;;;2.30;1.00;;;19.20;51.10;;;;;;4986357;28;20057;-55
2023/09/23 11:29:35;;;;;;;6.18;3.42;;;19.20;51.10;;;;;;4985285;28;20061;-50
2023/09/23 11:32:03;;;;;;;3.72;2.00;;;19.20;51.30;;;;;;4985687;28;20055;-48
2023/09/23 11:34:30;;;;;;;4.55;1.35;;;19.20;51.40;;;;;;4986131;28;20065;-50
2023/09/23 11:36:58;;;;;;;3.35;1.27;;;19.20;51.50;;;;;;4987812;28;20045;-47
2023/09/23 11:39:26;;;;;;;1.45;0.98;;;19.30;51.40;;;;;;4986736;28;20058;-51
2023/09/23 11:41:57;;;;;;;2.30;1.10;;;19.30;51.40;;;;;;4985855;28;20054;-49
2023/09/23 11:44:25;;;;;;;4.97;1.15;;;19.30;51.00;;;;;;4985737;28;20054;-48
2023/09/23 11:46:53;;;;;;;2.22;1.15;;;19.30;51.00;;;;;;4984732;28;20058;-55
2023/09/23 11:49:20;;;;;;;4.70;1.35;;;19.40;51.20;;;;;;4986046;28;20418;-46
2023/09/23 11:51:47;;;;;;;3.85;1.30;;;19.40;51.30;;;;;;4985911;28;20046;-47
2023/09/23 11:54:15;;;;;;;3.20;1.30;;;19.40;51.40;;;;;;4987022;28;20497;-47
2023/09/23 11:56:42;;;;;;;3.47;1.52;;;19.50;51.50;;;;;;4985884;28;20054;-48
2023/09/23 11:59:09;;;;;;;4.10;1.27;;;19.50;51.00;;;;;;4987036;28;20057;-43
2023/09/23 12:01:38;;;;;;;2.47;0.82;;;19.50;50.60;;;;;;4984810;28;20498;-45
2023/09/23 12:04:06;;;;;;;3.15;1.33;;;19.60;50.30;;;;;;4985310;28;20077;-47
2023/09/23 12:06:35;;;;;;;1.80;0.90;;;19.60;50.30;;;;;;4987114;28;20062;-56
2023/09/23 12:09:02;;;;;;;3.30;1.10;;;19.60;50.40;;;;;;4985016;28;20061;-53
2023/09/23 12:11:30;;;;;;;5.63;0.90;;;19.70;50.30;;;;;;4987651;28;20053;-58
2023/09/23 12:13:57;;;;;;;3.88;0.90;;;19.70;49.90;;;;;;4985173;28;20054;-50
2023/09/23 12:16:24;;;;;;;2.50;0.88;;;19.60;49.40;;;;;;4983887;28;20050;-54
2023/09/23 12:18:53;;;;;;;2.30;0.98;;;19.50;49.80;;;;;;4986373;28;20065;-59
2023/09/23 12:21:20;;;;;;;4.75;0.95;;;19.40;49.50;;;;;;4985641;28;20062;-56
2023/09/23 12:23:48;;;;;;;8.15;1.15;;;19.30;49.90;;;;;;4985502;28;20061;-57
2023/09/23 12:26:15;;;;;;;4.13;1.45;;;19.30;50.40;;;;;;4985373;28;20058;-52
2023/09/23 12:28:42;;;;;;;4.38;1.15;;;19.20;50.70;;;;;;4987860;28;20398;-46
2023/09/23 12:31:10;;;;;;;5.68;1.25;;;19.10;50.60;;;;;;4983258;28;20521;-58
2023/09/23 12:33:37;;;;;;;3.53;1.05;;;19.00;51.10;;;;;;4984579;28;20053;-50
2023/09/23 12:36:06;;;;;;;3.58;1.00;;;19.00;51.90;;;;;;4984060;28;20490;-56
2023/09/23 12:38:33;;;;;;;3.13;1.15;;;19.00;51.60;;;;;;4985156;28;20505;-54
2023/09/23 12:41:01;;;;;;;3.10;1.10;;;18.90;50.90;;;;;;4985418;28;20050;-55
2023/09/23 12:43:28;;;;;;;2.47;1.02;;;18.90;51.10;;;;;;4983747;28;20410;-54
2023/09/23 12:45:55;;;;;;;2.92;0.80;;;18.90;51.30;;;;;;4985933;28;20513;-56
2023/09/23 12:48:23;;;;;;;3.28;1.20;;;18.90;52.20;;;;;;4985564;28;20061;-56
2023/09/23 12:50:50;;;;;;;3.17;1.05;;;18.90;51.40;;;;;;4984756;28;20058;-56
2023/09/23 12:53:18;;;;;;;3.83;1.00;;;18.90;51.10;;;;;;4984605;28;20054;-58
2023/09/23 12:55:46;;;;;;;4.47;0.98;;;18.90;51.00;;;;;;4985594;28;20054;-55